createdAt,value
2018-11-28T00:06:26.684Z,76.55
2018-11-28T00:16:44.642Z,76.71
2018-11-28T00:27:02.664Z,76.73
2018-11-28T00:37:20.518Z,75.50
2018-11-28T00:47:38.946Z,76.34
2018-11-28T00:57:56.420Z,75.51
2018-11-28T01:08:14.465Z,75.30
2018-11-28T01:18:32.433Z,75.39
2018-11-28T01:28:50.075Z,75.21
2018-11-28T01:39:08.174Z,76.00
2018-11-28T01:49:28.230Z,76.50
2018-11-28T01:59:46.651Z,76.73
2018-11-28T02:10:05.148Z,77.49
2018-11-28T02:20:23.065Z,78.62
2018-11-28T02:30:41.002Z,80.27
2018-11-28T02:40:58.899Z,79.82
2018-11-28T02:51:16.700Z,79.78
2018-11-28T03:01:37.285Z,79.19
2018-11-28T03:11:55.329Z,78.92
2018-11-28T03:22:13.415Z,78.64
2018-11-28T03:32:31.428Z,79.81
2018-11-28T03:42:49.141Z,80.09
2018-11-28T03:53:07.200Z,78.08
2018-11-28T04:03:25.562Z,78.82
2018-11-28T04:13:43.290Z,78.57
2018-11-28T04:24:01.316Z,78.24
2018-11-28T04:34:19.178Z,78.94
2018-11-28T04:44:37.424Z,78.51
2018-11-28T04:54:55.121Z,78.65
2018-11-28T05:05:13.318Z,79.73
2018-11-28T05:15:36.353Z,79.93
2018-11-28T05:25:54.834Z,79.85
2018-11-28T05:36:13.698Z,80.26
2018-11-28T05:46:31.694Z,81.02
2018-11-28T05:56:49.843Z,81.03
2018-11-28T06:07:08.093Z,81.13
2018-11-28T06:17:26.172Z,80.98
2018-11-28T06:27:44.402Z,81.53
2018-11-28T06:38:02.609Z,81.80
2018-11-28T06:48:20.602Z,81.32
2018-11-28T06:58:38.290Z,81.27
2018-11-28T07:08:56.375Z,80.70
2018-11-28T07:19:14.032Z,80.90
2018-11-28T07:29:32.126Z,81.51
2018-11-28T07:39:50.008Z,82.44
2018-11-28T07:50:09.192Z,82.50
2018-11-28T08:00:27.298Z,82.77
2018-11-28T08:10:45.153Z,82.33
2018-11-28T08:21:02.879Z,82.52
2018-11-28T08:31:20.407Z,81.44
2018-11-28T08:41:38.040Z,81.37
2018-11-28T08:51:57.434Z,81.40
2018-11-28T09:02:16.065Z,80.31
2018-11-28T09:12:32.958Z,80.12
2018-11-28T10:08:06.654Z,71.05
2018-11-28T10:18:24.976Z,70.20
2018-11-28T10:28:43.302Z,65.53
2018-11-28T10:39:01.812Z,65.54
2018-11-28T10:49:19.862Z,62.25
2018-11-28T10:59:37.899Z,59.57
2018-11-28T11:10:13.577Z,53.65
2018-11-28T11:20:31.529Z,53.65
2018-11-28T11:30:49.445Z,50.73
2018-11-28T12:01:36.374Z,53.05
2018-11-28T12:12:10.988Z,54.26
2018-11-28T12:22:31.851Z,54.56
2018-11-28T12:32:50.441Z,55.47
2018-11-28T12:43:10.470Z,53.85
2018-11-28T12:53:32.042Z,52.02
2018-11-28T13:04:04.891Z,52.41
2018-11-28T13:14:25.807Z,50.94
2018-11-28T13:24:44.283Z,49.50
2018-11-28T13:35:03.573Z,55.46
2018-11-28T13:45:33.035Z,57.85
2018-11-28T13:56:57.034Z,60.67
2018-11-28T14:06:15.063Z,64.06
2018-11-28T14:16:38.901Z,71.26
2018-11-28T14:26:58.929Z,73.35
2018-11-28T14:37:21.765Z,74.86
2018-11-28T14:47:42.062Z,74.02
2018-11-28T14:58:00.738Z,75.95
2018-11-28T15:09:26.223Z,78.44
2018-11-28T15:19:45.094Z,79.36
2018-11-28T15:30:04.091Z,80.04
2018-11-28T15:40:23.095Z,80.45
2018-11-28T15:50:41.593Z,81.51
2018-11-28T16:01:01.194Z,81.91
2018-11-28T16:11:20.637Z,82.79
2018-11-28T16:21:39.111Z,82.75
2018-11-28T16:31:58.960Z,82.85
2018-11-28T16:42:17.802Z,82.74
2018-11-28T16:52:36.472Z,83.59
2018-11-28T17:02:56.433Z,84.45
2018-11-28T17:13:15.526Z,84.28
2018-11-28T17:23:35.337Z,84.87
2018-11-28T17:33:54.913Z,85.07
2018-11-28T17:44:13.871Z,84.27
2018-11-28T17:54:32.938Z,84.87
2018-11-28T18:04:53.095Z,84.54
2018-11-28T18:15:13.625Z,85.85
2018-11-28T18:25:35.529Z,85.36
2018-11-28T18:35:54.628Z,85.89
2018-11-28T18:46:22.030Z,86.22
2018-11-28T18:56:46.904Z,86.33
2018-11-28T19:07:07.972Z,86.63
2018-11-28T19:17:33.176Z,85.58
2018-11-28T19:27:57.640Z,86.13
2018-11-28T19:38:19.505Z,85.17
2018-11-28T19:48:42.245Z,85.47
2018-11-28T19:59:04.935Z,86.01
2018-11-28T20:09:30.052Z,85.21
2018-11-28T20:19:59.769Z,85.09
2018-11-28T20:30:44.694Z,86.18
2018-11-28T20:41:06.041Z,86.52
2018-11-28T20:51:34.102Z,86.05
2018-11-28T21:01:55.710Z,85.74
2018-11-28T21:12:17.240Z,85.82
2018-11-28T21:22:36.481Z,85.56
2018-11-28T21:32:56.779Z,85.61
2018-11-28T21:43:19.427Z,85.90
2018-11-28T21:53:38.758Z,85.83
2018-11-28T22:03:58.116Z,85.33
2018-11-28T22:14:16.775Z,84.95
2018-11-28T22:24:35.598Z,85.81
2018-11-28T22:34:53.456Z,85.51
2018-11-28T22:45:32.129Z,85.18
2018-11-28T22:55:50.181Z,86.08
2018-11-28T23:06:09.804Z,86.13
2018-11-28T23:16:28.214Z,85.67
2018-11-28T23:26:47.268Z,85.55
2018-11-28T23:37:06.685Z,85.53
2018-11-28T23:47:26.454Z,85.67
2018-11-28T23:57:45.198Z,85.44
